Latest Weather Observations for Neptune Island

IDS60801

Issued at 12:01 pm CDT Sunday 14 February 2016 (issued every 30 minutes, with the page automatically refreshed every 10 minutes)

About weather observations | Map of weather stations | Latest weather observations for SA | Other Formats
Station Details ID: 018115 Name: NEPTUNE ISLAND Lat: -35.34 Lon: 136.12 Height: 32.0 m
Data from the previous 72 hours. | See also: Recent months at Neptune Island
Date/Time
CDT
Temp
°C
App
Temp
°C
Dew
Point
Rel
Hum
%
Delta-T
°C
Wind Press
QNH
hPa
Press
MSL
hPa
Rain
since 9 am
mm
Dir
 
Spd
km/h
Gust
km/h
Spd
kts
Gust
kts
14/12:00pm 20.2 17.5 14.6 70 3.3 WSW 22 26 12 14 1017.0 1016.9 0.0
14/11:30am 20.0 17.1 14.1 69 3.4 SW 22 28 12 15 1017.1 1017.0 0.0
14/11:00am 19.9 18.9 14.5 71 3.1 SW 13 19 7 10 1017.1 1017.0 0.0
14/10:30am 19.3 17.0 14.1 72 3.0 SW 19 22 10 12 1017.2 1017.1 0.0
14/10:00am 19.4 15.7 14.0 71 3.1 SW 26 32 14 17 1017.1 1017.0 0.0
14/09:30am 19.3 15.7 14.3 73 2.9 SW 26 30 14 16 1016.9 1016.8 0.0
14/09:00am 18.9 14.5 14.2 74 2.7 SW 30 33 16 18 1016.7 1016.6 0.0
14/08:30am 18.4 14.4 14.1 76 2.5 SW 28 35 15 19 1016.3 1016.2 0.0
14/08:00am 18.0 13.2 13.9 77 2.3 SW 32 37 17 20 1015.9 1015.8 0.0
14/07:30am 17.8 12.8 13.9 78 2.2 SW 33 39 18 21 1015.3 1015.3 0.0
14/07:00am 18.1 12.4 14.2 78 2.2 SW 37 44 20 24 1015.0 1015.0 0.0
14/06:30am 18.1 13.1 14.0 77 2.3 WSW 33 39 18 21 1014.6 1014.6 0.0
14/06:00am 17.8 14.5 14.1 79 2.1 WSW 24 30 13 16 1014.3 1014.3 0.0
14/05:30am 17.8 12.9 13.7 77 2.3 WSW 32 37 17 20 1014.0 1014.0 0.0
14/05:00am 17.8 12.4 13.9 78 2.2 WSW 35 39 19 21 1013.9 1013.9 0.0
14/04:30am 17.8 12.6 13.5 76 2.4 SW 33 37 18 20 1013.8 1013.8 0.0
14/04:00am 17.5 12.4 13.0 75 2.5 SW 32 39 17 21 1013.5 1013.5 0.0
14/03:30am 17.7 12.5 13.4 76 2.4 SW 33 39 18 21 1013.6 1013.6 0.0
14/03:00am 17.9 13.2 14.2 79 2.1 SW 32 39 17 21 1013.8 1013.8 0.0
14/02:30am 17.8 12.9 13.7 77 2.3 SW 32 37 17 20 1013.9 1013.9 0.0
14/02:00am 18.1 13.0 14.8 81 1.9 SW 35 41 19 22 1014.1 1014.1 0.0
14/01:30am 18.2 13.3 14.3 78 2.2 SW 33 39 18 21 1014.4 1014.4 0.0
14/01:00am 18.2 13.7 14.9 81 1.9 SW 32 35 17 19 1014.6 1014.6 0.0
14/12:30am 18.3 13.8 15.0 81 1.9 SW 32 35 17 19 1014.6 1014.6 0.0
14/12:00am 18.6 14.9 15.1 80 2.0 WSW 28 33 15 18 1014.7 1014.7 0.0
 
Date/Time
CDT
Temp
°C
App
Temp
°C
Dew
Point
Rel
Hum
%
Delta-T
°C
Wind Press
QNH
hPa
Press
MSL
hPa
Rain
since 9 am
mm
Dir
 
Spd
km/h
Gust
km/h
Spd
kts
Gust
kts
13/11:30pm 18.6 14.9 14.9 79 2.2 WSW 28 33 15 18 1014.9 1014.9 0.0
13/11:00pm 18.7 14.9 14.8 78 2.3 SW 28 32 15 17 1015.1 1015.1 0.0
13/10:30pm 18.8 15.5 14.9 78 2.3 SW 26 32 14 17 1015.2 1015.2 0.0
13/10:00pm 18.7 14.9 14.6 77 2.4 SW 28 32 15 17 1015.1 1015.1 0.0
13/09:30pm 18.9 14.8 14.8 77 2.4 SW 30 35 16 19 1014.7 1014.7 0.0
13/09:00pm 19.0 15.3 15.1 78 2.3 SW 28 32 15 17 1014.4 1014.4 0.0
13/08:30pm 19.0 15.7 15.1 78 2.3 SW 26 33 14 18 1014.1 1014.1 0.0
13/08:00pm 19.5 15.6 15.6 78 2.3 SW 30 35 16 19 1014.0 1014.0 0.0
13/07:30pm 19.7 15.9 15.8 78 2.3 SW 30 35 16 19 1013.8 1013.8 0.0
13/07:00pm 20.3 17.2 16.5 79 2.3 SW 28 32 15 17 1013.4 1013.4 0.0
13/06:30pm 20.9 18.6 16.7 77 2.6 SW 24 30 13 16 1013.2 1013.2 0.0
13/06:00pm 20.8 17.9 17.0 79 2.3 SW 28 32 15 17 1013.1 1013.0 0.0
13/05:30pm 21.0 17.5 16.6 76 2.7 SW 30 35 16 19 1013.1 1013.0 0.0
13/05:00pm 21.5 19.3 17.9 80 2.2 SW 26 30 14 16 1013.3 1013.3 0.0
13/04:30pm 21.6 19.1 18.0 80 2.2 SW 28 33 15 18 1013.2 1013.2 0.0
13/04:00pm 21.4 19.7 18.0 81 2.1 SW 24 28 13 15 1013.3 1013.3 0.0
13/03:30pm 21.3 19.5 17.9 81 2.1 SW 24 30 13 16 1013.4 1013.4 0.0
13/03:00pm 20.3 17.7 17.9 86 1.5 SSW 28 32 15 17 1013.3 1013.3 0.0
13/02:30pm 20.1 17.4 18.4 90 1.1 SSW 30 35 16 19 1013.4 1013.4 0.0
13/02:00pm 20.1 19.0 19.4 96 0.4 SW 24 30 13 16 1013.4 1013.4 0.0
13/01:30pm 20.0 19.2 19.2 95 0.5 SW 22 28 12 15 1013.3 1013.3 0.0
13/01:00pm 20.4 19.3 19.4 94 0.6 SW 24 28 13 15 1013.2 1013.2 0.0
13/12:30pm 20.3 18.4 19.3 94 0.6 SW 28 33 15 18 1013.2 1013.2 0.0
13/12:00pm 20.7 20.9 20.2 97 0.3 WSW 19 22 10 12 1013.1 1013.0 0.0
13/11:30am 21.1 21.5 20.6 97 0.3 WSW 19 20 10 11 1013.0 1012.9 0.0
13/11:00am 20.7 21.4 20.5 99 0.1 WSW 17 22 9 12 1012.9 1012.8 0.0
13/10:30am 20.4 21.1 20.4 100 0.0 WSW 17 19 9 10 1012.9 1012.8 0.0
13/10:00am 20.0 20.5 20.0 100 0.0 WSW 17 20 9 11 1012.7 1012.6 0.0
13/09:30am 19.8 19.6 19.8 100 0.0 WSW 20 22 11 12 1012.6 1012.5 0.0
13/09:00am 19.6 19.5 19.6 100 0.0 WSW 19 20 10 11 1012.3 1012.2 0.0
13/08:30am 19.6 19.5 19.6 100 0.0 WSW 19 20 10 11 1011.9 1011.8 0.0
13/08:00am 19.5 20.1 19.5 100 0.0 W 15 17 8 9 1011.6 1011.5 0.0
13/07:30am 19.4 19.6 19.4 100 0.0 W 17 19 9 10 1011.4 1011.3 0.0
13/07:00am 19.3 19.5 19.3 100 0.0 W 17 20 9 11 1011.1 1011.0 0.0
13/06:30am 19.2 18.9 19.2 100 0.0 W 19 20 10 11 1010.9 1010.8 0.0
13/06:00am 19.2 19.3 19.2 100 0.0 W 17 20 9 11 1010.8 1010.7 0.0
13/05:30am 19.0 18.6 18.8 99 0.1 W 19 20 10 11 1010.6 1010.5 0.0
13/05:00am 18.9 18.4 18.6 98 0.2 WNW 19 22 10 12 1010.5 1010.4 0.0
13/04:30am 18.9 18.1 18.4 97 0.3 WNW 20 24 11 13 1010.4 1010.3 0.0
13/04:00am 18.8 18.4 18.1 96 0.4 WNW 17 20 9 11 1010.5 1010.4 0.0
13/03:30am 18.7 18.7 18.0 96 0.4 NW 15 19 8 10 1010.6 1010.5 0.0
13/03:00am 18.8 18.8 18.0 95 0.5 NW 15 17 8 9 1010.6 1010.5 0.0
13/02:30am 18.8 18.8 18.0 95 0.5 NNW 15 17 8 9 1010.8 1010.7 0.0
13/02:00am 18.9 19.2 17.9 94 0.6 NW 13 17 7 9 1011.2 1011.1 0.0
13/01:30am 19.0 19.3 17.8 93 0.7 WNW 13 15 7 8 1011.5 1011.4 0.0
13/01:00am 19.0 18.8 17.7 92 0.8 WNW 15 17 8 9 1011.6 1011.5 0.0
13/12:30am 19.0 18.7 17.3 90 1.0 WNW 15 19 8 10 1011.6 1011.5 0.0
13/12:00am 19.1 19.1 17.2 89 1.2 W 13 15 7 8 1011.6 1011.5 0.0
 
Date/Time
CDT
Temp
°C
App
Temp
°C
Dew
Point
Rel
Hum
%
Delta-T
°C
Wind Press
QNH
hPa
Press
MSL
hPa
Rain
since 9 am
mm
Dir
 
Spd
km/h
Gust
km/h
Spd
kts
Gust
kts
12/11:30pm 19.3 18.6 17.4 89 1.2 W 17 20 9 11 1012.0 1011.9 0.0
12/11:00pm 19.1 19.1 17.2 89 1.2 NW 13 15 7 8 1011.6 1011.5 0.0
12/10:30pm 19.1 19.0 16.9 87 1.3 NW 13 17 7 9 1011.8 1011.7 0.0
12/10:00pm 19.1 18.9 16.7 86 1.4 NNW 13 15 7 8 1011.8 1011.7 0.0
12/09:30pm 19.1 19.0 16.1 83 1.8 WNW 11 13 6 7 1011.9 1011.8 0.0
12/09:00pm 19.3 19.6 16.0 81 2.0 W 9 11 5 6 1011.7 1011.6 0.0
12/08:30pm 19.5 20.1 15.8 79 2.2 WNW 7 9 4 5 1011.8 1011.7 0.0
12/08:00pm 19.5 19.9 15.4 77 2.4 N 7 9 4 5 1011.6 1011.5 0.0
12/07:30pm 20.2 20.9 16.0 77 2.5 WNW 7 9 4 5 1011.9 1011.8 0.0
12/07:00pm 20.6 21.1 16.6 78 2.4 WSW 9 11 5 6 1012.1 1012.0 0.0
12/06:30pm 20.4 21.1 16.2 77 2.5 SSW 7 9 4 5 1011.8 1011.7 0.0
12/06:00pm 20.5 21.3 16.3 77 2.5 ENE 7 9 4 5 1011.9 1011.8 0.0
12/05:30pm 20.6 21.0 16.4 77 2.5 SSW 9 11 5 6 1012.3 1012.2 0.0
12/05:00pm 20.8 20.9 16.4 76 2.7 S 11 13 6 7 1012.3 1012.2 0.0
12/04:30pm 21.6 21.3 17.4 77 2.6 S 15 17 8 9 1012.8 1012.7 0.0
12/04:00pm 20.6 19.1 16.2 76 2.6 SSW 19 20 10 11 1013.0 1012.9 0.0
12/03:30pm 22.2 21.0 17.1 73 3.1 SW 19 24 10 13 1013.5 1013.5 0.0
12/03:00pm 22.0 19.5 17.2 74 3.0 SW 26 30 14 16 1014.0 1014.0 0.0
12/02:30pm 22.6 21.7 17.7 74 3.0 SW 19 22 10 12 1014.3 1014.3 0.0
12/02:00pm 21.2 20.7 16.8 76 2.7 SSW 15 19 8 10 1014.5 1014.5 0.0
12/01:30pm 21.3 21.6 16.9 76 2.7 SSW 11 15 6 8 1014.7 1014.7 0.0
12/01:00pm 20.9 20.0 16.9 78 2.4 ENE 17 20 9 11 1013.8 1013.8 0.0
12/12:30pm 20.9 19.9 16.5 76 2.7 E 17 20 9 11 1014.2 1014.2 0.0
12/12:00pm 20.6 19.8 16.0 75 2.8 E 15 19 8 10 1014.7 1014.7 0.0
12/11:30am 20.4 19.4 15.6 74 2.9 ESE 15 19 8 10 1015.0 1015.0 0.0
12/11:00am 20.9 20.2 16.3 75 2.8 ESE 15 17 8 9 1015.3 1015.3 0.0
12/10:30am 21.1 21.0 16.9 77 2.6 ESE 13 17 7 9 1015.7 1015.6 0.0
12/10:00am 20.1 19.7 16.1 78 2.4 ESE 13 17 7 9 1016.1 1016.0 0.0
12/09:30am 19.6 18.9 16.3 81 2.0 E 15 19 8 10 1016.2 1016.1 0.0
12/09:00am 19.5 18.9 16.7 84 1.7 ESE 15 17 8 9 1016.4 1016.3 0.0
12/08:30am 18.7 18.1 16.7 88 1.2 ESE 15 17 8 9 1016.4 1016.3 0.0
12/08:00am 17.8 17.1 16.3 91 0.9 ESE 15 19 8 10 1016.2 1016.1 0.0
12/07:30am 17.5 16.7 16.2 92 0.8 ESE 15 19 8 10 1015.9 1015.8 0.0
12/07:00am 16.9 15.9 15.6 92 0.8 SE 15 17 8 9 1015.8 1015.7 0.0
12/06:30am 16.9 15.5 15.6 92 0.8 ESE 17 20 9 11 1015.6 1015.5 0.0
12/06:00am 16.9 14.9 15.6 92 0.8 SE 20 24 11 13 1015.2 1015.2 0.0
12/05:30am 17.0 15.2 15.9 93 0.6 ESE 20 24 11 13 1015.0 1015.0 0.0
12/05:00am 17.0 15.1 15.7 92 0.8 SE 20 24 11 13 1015.1 1015.1 0.0
12/04:30am 17.0 15.3 15.7 92 0.8 SE 19 24 10 13 1015.0 1015.0 0.0
12/04:00am 17.0 15.0 15.5 91 0.9 SE 20 24 11 13 1014.9 1014.9 0.0
12/03:30am 17.2 15.3 15.7 91 0.9 SSE 20 24 11 13 1015.3 1015.3 0.0
12/03:00am 17.3 16.0 15.8 91 0.9 SSE 17 20 9 11 1016.0 1015.9 0.0
12/02:30am 17.4 16.1 15.9 91 0.9 SSE 17 20 9 11 1016.2 1016.1 0.0
12/02:00am 17.4 15.6 15.9 91 0.9 SSE 20 24 11 13 1016.5 1016.4 0.0
12/01:30am 17.6 15.4 15.9 90 1.0 SE 22 26 12 14 1016.6 1016.5 0.0
12/01:00am 17.7 15.1 16.0 90 1.0 SE 24 30 13 16 1016.7 1016.6 0.0
12/12:30am 17.8 15.3 16.1 90 1.0 SSE 24 28 13 15 1017.2 1017.1 0.0
12/12:00am 18.0 15.2 16.3 90 1.0 SSE 26 30 14 16 1017.3 1017.2 0.0
 
Date/Time
CDT
Temp
°C
App
Temp
°C
Dew
Point
Rel
Hum
%
Delta-T
°C
Wind Press
QNH
hPa
Press
MSL
hPa
Rain
since 9 am
mm
Dir
 
Spd
km/h
Gust
km/h
Spd
kts
Gust
kts
11/11:30pm 18.0 15.3 16.5 91 0.9 SSE 26 32 14 17 1017.6 1017.5 0.0
11/11:00pm 18.0 14.9 16.5 91 0.9 SSE 28 33 15 18 1017.4 1017.3 0.0
11/10:30pm 18.1 14.2 16.4 90 1.0 SSE 32 35 17 19 1017.5 1017.4 0.0
11/10:00pm 18.2 14.3 16.5 90 1.0 SSE 32 39 17 21 1017.5 1017.4 0.0
11/09:30pm 18.2 13.7 16.5 90 1.0 SSE 35 41 19 22 1017.4 1017.3 0.0
11/09:00pm 18.3 13.2 16.8 91 0.9 SSE 39 48 21 26 1016.9 1016.8 0.0
11/08:30pm 18.5 13.0 16.8 90 1.0 S 41 50 22 27 1016.8 1016.7 0.0
11/08:00pm 18.9 13.8 16.9 88 1.2 S 39 48 21 26 1016.4 1016.3 0.0
11/07:30pm 19.0 13.0 16.8 87 1.3 S 44 54 24 29 1015.9 1015.8 0.0
11/07:00pm 19.3 12.8 16.7 85 1.6 S 46 54 25 29 1015.8 1015.7 0.0
11/06:30pm 19.5 13.0 16.5 83 1.8 S 46 56 25 30 1015.6 1015.5 0.0
11/06:00pm 19.8 13.9 16.6 82 1.9 S 43 50 23 27 1015.3 1015.3 0.0
11/05:30pm 20.1 14.9 16.5 80 2.2 S 39 50 21 27 1015.3 1015.3 0.0
11/05:00pm 20.3 15.0 16.3 78 2.4 S 39 46 21 25 1015.3 1015.3 0.0
11/04:30pm 20.7 16.7 16.1 75 2.8 S 32 41 17 22 1015.5 1015.4 0.0
11/04:00pm 20.8 16.8 16.6 77 2.5 S 33 41 18 22 1015.7 1015.6 0.0
11/03:30pm 21.3 18.3 16.9 76 2.7 S 28 35 15 19 1015.9 1015.8 0.0
11/03:00pm 21.3 18.3 16.9 76 2.7 S 28 33 15 18 1016.1 1016.0 0.0
11/02:30pm 21.0 18.1 16.0 73 3.0 S 26 32 14 17 1016.5 1016.4 0.0
11/02:00pm 21.6 19.7 16.8 74 2.9 S 22 26 12 14 1017.0 1016.9 0.0
11/01:30pm 21.8 20.8 16.5 72 3.2 S 17 19 9 10 1017.0 1016.9 0.0
11/01:00pm 20.3 19.0 15.7 75 2.7 SSW 17 20 9 11 1017.4 1017.3 0.0
11/12:30pm 21.5 21.0 15.8 70 3.4 S 13 15 7 8 1017.5 1017.4 0.0

Other Formats:

Comma delimited format used in spreadsheet applications
http://www.bom.gov.au/fwo/IDS60801/IDS60801.94804.axf

JavaScript Object Notation format (JSON) in row-major order
http://www.bom.gov.au/fwo/IDS60801/IDS60801.94804.json